< < Back
Terminal Aerodrome Forecast


Current Version              Previous Versions:   1  2  3  4  5  6  7  8  9  

Terminal Aerodrome Forecast

815
FTUS42 KJAX 161100
TAFSSI
TAF
KSSI 161120Z 1612/1712 01012KT P6SM BKN035
     FM161400 04017G27KT P6SM BKN030
     FM170100 05011KT P6SM BKN025=

Latest METAR

237
SAUS70 KWBC 161900 RRB
MTRSSI
METAR KSSI 161853Z AUTO 04017G22KT 2SM HZ BKN023 15/08 A3026 RMK AO2
SLP247 T01500083 PWINO $


USA.gov is the U.S. government's official web portal to all federal, state and local government web resources and services.